sensor_id;sensor_type;location;lat;lon;timestamp;pressure;altitude;pressure_sealevel;temperature;humidity
11878;BME280;5998;42.676;23.268;2023-03-03T00:00:05;94849.88;;;4.89;100.00
11878;BME280;5998;42.676;23.268;2023-03-03T00:02:32;94866.72;;;4.98;100.00
11878;BME280;5998;42.676;23.268;2023-03-03T00:04:59;94859.91;;;5.14;100.00
11878;BME280;5998;42.676;23.268;2023-03-03T00:07:26;94858.13;;;5.01;100.00
11878;BME280;5998;42.676;23.268;2023-03-03T00:09:52;94854.75;;;4.73;100.00
11878;BME280;5998;42.676;23.268;2023-03-03T00:12:22;94864.63;;;4.72;100.00
11878;BME280;5998;42.676;23.268;2023-03-03T00:14:50;94851.25;;;4.64;100.00
11878;BME280;5998;42.676;23.268;2023-03-03T00:17:21;94855.75;;;4.77;100.00
11878;BME280;5998;42.676;23.268;2023-03-03T00:19:49;94848.97;;;4.57;100.00
11878;BME280;5998;42.676;23.268;2023-03-03T00:22:25;94843.72;;;4.66;100.00
11878;BME280;5998;42.676;23.268;2023-03-03T00:24:53;94856.22;;;4.79;100.00
11878;BME280;5998;42.676;23.268;2023-03-03T00:27:26;94857.00;;;4.80;100.00
11878;BME280;5998;42.676;23.268;2023-03-03T00:29:56;94851.81;;;4.74;100.00
11878;BME280;5998;42.676;23.268;2023-03-03T00:32:26;94833.81;;;4.80;100.00
11878;BME280;5998;42.676;23.268;2023-03-03T00:34:54;94840.63;;;4.95;100.00
11878;BME280;5998;42.676;23.268;2023-03-03T00:37:30;94840.22;;;5.01;100.00
11878;BME280;5998;42.676;23.268;2023-03-03T00:40:18;94834.88;;;5.01;100.00
11878;BME280;5998;42.676;23.268;2023-03-03T00:42:48;94840.09;;;5.06;100.00
11878;BME280;5998;42.676;23.268;2023-03-03T00:45:31;94832.34;;;5.18;100.00
11878;BME280;5998;42.676;23.268;2023-03-03T00:48:15;94829.19;;;5.16;100.00
11878;BME280;5998;42.676;23.268;2023-03-03T00:50:44;94818.81;;;5.15;100.00
11878;BME280;5998;42.676;23.268;2023-03-03T00:53:13;94823.00;;;5.07;100.00
11878;BME280;5998;42.676;23.268;2023-03-03T00:55:41;94824.84;;;5.29;100.00
11878;BME280;5998;42.676;23.268;2023-03-03T00:58:08;94821.44;;;5.37;100.00
11878;BME280;5998;42.676;23.268;2023-03-03T01:00:36;94808.56;;;5.39;100.00
11878;BME280;5998;42.676;23.268;2023-03-03T01:03:05;94794.78;;;5.46;100.00
11878;BME280;5998;42.676;23.268;2023-03-03T01:05:33;94794.78;;;5.46;100.00
11878;BME280;5998;42.676;23.268;2023-03-03T01:08:00;94792.91;;;5.46;100.00
11878;BME280;5998;42.676;23.268;2023-03-03T01:10:30;94795.09;;;5.44;100.00
11878;BME280;5998;42.676;23.268;2023-03-03T01:12:57;94796.63;;;5.36;100.00
11878;BME280;5998;42.676;23.268;2023-03-03T01:15:24;94792.78;;;5.51;100.00
11878;BME280;5998;42.676;23.268;2023-03-03T01:17:51;94796.66;;;5.45;100.00
11878;BME280;5998;42.676;23.268;2023-03-03T01:20:19;94789.00;;;5.52;100.00
11878;BME280;5998;42.676;23.268;2023-03-03T01:22:45;94789.16;;;5.56;100.00
11878;BME280;5998;42.676;23.268;2023-03-03T01:25:12;94787.19;;;5.70;100.00
11878;BME280;5998;42.676;23.268;2023-03-03T01:27:39;94799.09;;;5.64;100.00
11878;BME280;5998;42.676;23.268;2023-03-03T01:30:07;94788.28;;;5.69;100.00
11878;BME280;5998;42.676;23.268;2023-03-03T01:32:34;94791.13;;;5.72;100.00
11878;BME280;5998;42.676;23.268;2023-03-03T01:35:01;94776.31;;;5.66;100.00
11878;BME280;5998;42.676;23.268;2023-03-03T01:37:29;94784.91;;;5.46;100.00
11878;BME280;5998;42.676;23.268;2023-03-03T01:39:55;94786.00;;;5.45;100.00
11878;BME280;5998;42.676;23.268;2023-03-03T01:42:22;94784.78;;;5.20;100.00
11878;BME280;5998;42.676;23.268;2023-03-03T01:45:11;94788.53;;;5.19;100.00
11878;BME280;5998;42.676;23.268;2023-03-03T01:47:42;94788.44;;;5.02;100.00
11878;BME280;5998;42.676;23.268;2023-03-03T01:50:13;94778.03;;;5.23;100.00
11878;BME280;5998;42.676;23.268;2023-03-03T01:52:44;94780.09;;;5.26;100.00
11878;BME280;5998;42.676;23.268;2023-03-03T01:55:14;94778.97;;;5.18;100.00
11878;BME280;5998;42.676;23.268;2023-03-03T01:57:45;94775.69;;;5.21;100.00
11878;BME280;5998;42.676;23.268;2023-03-03T02:00:14;94774.59;;;5.00;100.00
11878;BME280;5998;42.676;23.268;2023-03-03T02:02:41;94776.44;;;5.13;100.00
11878;BME280;5998;42.676;23.268;2023-03-03T02:05:09;94787.47;;;4.98;100.00
11878;BME280;5998;42.676;23.268;2023-03-03T02:07:37;94785.00;;;4.80;100.00
11878;BME280;5998;42.676;23.268;2023-03-03T02:10:09;94787.00;;;4.96;100.00
11878;BME280;5998;42.676;23.268;2023-03-03T02:12:40;94782.00;;;5.03;100.00
11878;BME280;5998;42.676;23.268;2023-03-03T02:15:16;94785.78;;;4.80;100.00
11878;BME280;5998;42.676;23.268;2023-03-03T02:17:44;94786.00;;;4.70;100.00
11878;BME280;5998;42.676;23.268;2023-03-03T02:20:15;94791.06;;;4.71;100.00
11878;BME280;5998;42.676;23.268;2023-03-03T02:22:49;94780.44;;;4.58;100.00
11878;BME280;5998;42.676;23.268;2023-03-03T02:25:24;94788.72;;;4.56;100.00
11878;BME280;5998;42.676;23.268;2023-03-03T02:27:54;94789.66;;;4.52;100.00
11878;BME280;5998;42.676;23.268;2023-03-03T02:30:22;94799.91;;;4.58;100.00
11878;BME280;5998;42.676;23.268;2023-03-03T02:32:49;94788.31;;;4.63;100.00
11878;BME280;5998;42.676;23.268;2023-03-03T02:35:27;94793.00;;;4.57;100.00
11878;BME280;5998;42.676;23.268;2023-03-03T02:37:56;94788.53;;;4.66;100.00
11878;BME280;5998;42.676;23.268;2023-03-03T02:40:26;94782.38;;;4.66;100.00
11878;BME280;5998;42.676;23.268;2023-03-03T02:43:00;94787.41;;;4.67;100.00
11878;BME280;5998;42.676;23.268;2023-03-03T02:45:30;94788.63;;;4.84;100.00
11878;BME280;5998;42.676;23.268;2023-03-03T02:47:57;94782.25;;;4.93;100.00
11878;BME280;5998;42.676;23.268;2023-03-03T02:50:23;94787.53;;;5.07;100.00
11878;BME280;5998;42.676;23.268;2023-03-03T02:52:50;94779.34;;;5.03;100.00
11878;BME280;5998;42.676;23.268;2023-03-03T02:55:17;94781.53;;;5.01;100.00
11878;BME280;5998;42.676;23.268;2023-03-03T02:57:43;94780.44;;;5.02;100.00
11878;BME280;5998;42.676;23.268;2023-03-03T03:00:12;94767.09;;;5.02;100.00
11878;BME280;5998;42.676;23.268;2023-03-03T03:02:39;94771.94;;;5.00;100.00
11878;BME280;5998;42.676;23.268;2023-03-03T03:05:06;94776.50;;;5.00;100.00
11878;BME280;5998;42.676;23.268;2023-03-03T03:07:34;94773.66;;;4.96;100.00
11878;BME280;5998;42.676;23.268;2023-03-03T03:10:03;94766.97;;;5.07;100.00
11878;BME280;5998;42.676;23.268;2023-03-03T03:12:29;94769.97;;;5.14;100.00
11878;BME280;5998;42.676;23.268;2023-03-03T03:14:57;94776.44;;;5.22;100.00
11878;BME280;5998;42.676;23.268;2023-03-03T03:17:25;94771.47;;;5.29;100.00
11878;BME280;5998;42.676;23.268;2023-03-03T03:19:51;94770.53;;;5.33;100.00
11878;BME280;5998;42.676;23.268;2023-03-03T03:22:18;94770.09;;;5.40;100.00
11878;BME280;5998;42.676;23.268;2023-03-03T03:24:45;94768.75;;;5.51;100.00
11878;BME280;5998;42.676;23.268;2023-03-03T03:27:11;94760.56;;;5.48;100.00
11878;BME280;5998;42.676;23.268;2023-03-03T03:29:38;94762.25;;;5.35;100.00
11878;BME280;5998;42.676;23.268;2023-03-03T03:32:05;94760.63;;;5.25;100.00
11878;BME280;5998;42.676;23.268;2023-03-03T03:34:33;94763.06;;;5.13;100.00
11878;BME280;5998;42.676;23.268;2023-03-03T03:37:00;94757.13;;;5.16;100.00
11878;BME280;5998;42.676;23.268;2023-03-03T03:39:26;94751.81;;;5.25;100.00
11878;BME280;5998;42.676;23.268;2023-03-03T03:41:53;94753.88;;;5.28;100.00
11878;BME280;5998;42.676;23.268;2023-03-03T03:44:20;94752.47;;;5.30;100.00
11878;BME280;5998;42.676;23.268;2023-03-03T03:46:48;94752.47;;;5.30;100.00
11878;BME280;5998;42.676;23.268;2023-03-03T03:49:15;94747.91;;;5.31;100.00
11878;BME280;5998;42.676;23.268;2023-03-03T03:51:43;94748.06;;;5.26;100.00
11878;BME280;5998;42.676;23.268;2023-03-03T03:54:09;94751.47;;;5.18;100.00
11878;BME280;5998;42.676;23.268;2023-03-03T03:56:36;94750.25;;;5.24;100.00
11878;BME280;5998;42.676;23.268;2023-03-03T03:59:04;94752.91;;;5.24;100.00
11878;BME280;5998;42.676;23.268;2023-03-03T04:01:31;94749.31;;;5.28;100.00
11878;BME280;5998;42.676;23.268;2023-03-03T04:03:58;94749.13;;;5.16;100.00
11878;BME280;5998;42.676;23.268;2023-03-03T04:06:25;94754.16;;;5.18;100.00
11878;BME280;5998;42.676;23.268;2023-03-03T04:08:53;94747.41;;;5.20;100.00
11878;BME280;5998;42.676;23.268;2023-03-03T04:11:20;94743.94;;;5.20;100.00
11878;BME280;5998;42.676;23.268;2023-03-03T04:13:47;94740.31;;;5.16;100.00
11878;BME280;5998;42.676;23.268;2023-03-03T04:16:13;94742.69;;;5.17;100.00
11878;BME280;5998;42.676;23.268;2023-03-03T04:18:40;94749.13;;;5.16;100.00
11878;BME280;5998;42.676;23.268;2023-03-03T04:21:10;94747.41;;;5.20;100.00
11878;BME280;5998;42.676;23.268;2023-03-03T04:23:37;94736.41;;;5.22;100.00
11878;BME280;5998;42.676;23.268;2023-03-03T04:26:05;94745.72;;;5.33;100.00
11878;BME280;5998;42.676;23.268;2023-03-03T04:28:32;94748.25;;;5.29;100.00
11878;BME280;5998;42.676;23.268;2023-03-03T04:30:59;94745.22;;;5.22;100.00
11878;BME280;5998;42.676;23.268;2023-03-03T04:33:25;94736.78;;;5.29;100.00
11878;BME280;5998;42.676;23.268;2023-03-03T04:35:52;94735.84;;;5.33;100.00
11878;BME280;5998;42.676;23.268;2023-03-03T04:38:19;94745.22;;;5.22;100.00
11878;BME280;5998;42.676;23.268;2023-03-03T04:40:46;94743.94;;;5.20;100.00
11878;BME280;5998;42.676;23.268;2023-03-03T04:43:14;94745.53;;;5.21;100.00
11878;BME280;5998;42.676;23.268;2023-03-03T04:45:41;94739.06;;;5.22;100.00
11878;BME280;5998;42.676;23.268;2023-03-03T04:48:08;94743.13;;;5.11;100.00
11878;BME280;5998;42.676;23.268;2023-03-03T04:50:34;94745.66;;;4.85;100.00
11878;BME280;5998;42.676;23.268;2023-03-03T04:53:01;94749.06;;;5.08;100.00
11878;BME280;5998;42.676;23.268;2023-03-03T04:55:28;94732.50;;;4.97;100.00
11878;BME280;5998;42.676;23.268;2023-03-03T04:57:54;94751.00;;;5.16;100.00
11878;BME280;5998;42.676;23.268;2023-03-03T05:00:22;94748.16;;;5.12;100.00
11878;BME280;5998;42.676;23.268;2023-03-03T05:02:49;94745.34;;;5.17;100.00
11878;BME280;5998;42.676;23.268;2023-03-03T05:05:17;94756.34;;;5.16;100.00
11878;BME280;5998;42.676;23.268;2023-03-03T05:07:43;94751.53;;;5.26;100.00
11878;BME280;5998;42.676;23.268;2023-03-03T05:10:10;94746.97;;;5.27;100.00
11878;BME280;5998;42.676;23.268;2023-03-03T05:12:37;94760.84;;;5.38;100.00
11878;BME280;5998;42.676;23.268;2023-03-03T05:15:05;94755.69;;;5.41;100.00
11878;BME280;5998;42.676;23.268;2023-03-03T05:17:33;94761.16;;;5.45;100.00
11878;BME280;5998;42.676;23.268;2023-03-03T05:20:00;94752.38;;;5.44;100.00
11878;BME280;5998;42.676;23.268;2023-03-03T05:22:27;94755.69;;;5.50;100.00
11878;BME280;5998;42.676;23.268;2023-03-03T05:24:54;94758.84;;;5.52;100.00
11878;BME280;5998;42.676;23.268;2023-03-03T05:27:20;94753.81;;;5.50;100.00
11878;BME280;5998;42.676;23.268;2023-03-03T05:29:47;94751.28;;;5.45;100.00
11878;BME280;5998;42.676;23.268;2023-03-03T05:32:14;94756.66;;;5.54;100.00
11878;BME280;5998;42.676;23.268;2023-03-03T05:34:42;94758.63;;;5.40;100.00
11878;BME280;5998;42.676;23.268;2023-03-03T05:37:08;94752.38;;;5.44;100.00
11878;BME280;5998;42.676;23.268;2023-03-03T05:39:35;94760.06;;;5.46;100.00
11878;BME280;5998;42.676;23.268;2023-03-03T05:42:02;94763.88;;;5.53;100.00
11878;BME280;5998;42.676;23.268;2023-03-03T05:44:29;94760.22;;;5.41;100.00
11878;BME280;5998;42.676;23.268;2023-03-03T05:46:55;94765.06;;;5.30;100.00
11878;BME280;5998;42.676;23.268;2023-03-03T05:49:23;94767.41;;;5.31;100.00
11878;BME280;5998;42.676;23.268;2023-03-03T05:51:52;94765.38;;;5.37;100.00
11878;BME280;5998;42.676;23.268;2023-03-03T05:54:18;94768.56;;;5.48;100.00
11878;BME280;5998;42.676;23.268;2023-03-03T05:56:45;94769.22;;;5.53;100.00
11878;BME280;5998;42.676;23.268;2023-03-03T05:59:12;94764.06;;;5.57;100.00
11878;BME280;5998;42.676;23.268;2023-03-03T06:01:38;94769.94;;;5.36;100.00
11878;BME280;5998;42.676;23.268;2023-03-03T06:04:05;94764.22;;;5.21;100.00
11878;BME280;5998;42.676;23.268;2023-03-03T06:06:33;94774.47;;;5.36;100.00
11878;BME280;5998;42.676;23.268;2023-03-03T06:09:01;94773.09;;;5.47;100.00
11878;BME280;5998;42.676;23.268;2023-03-03T06:11:28;94750.25;;;5.24;100.00
11878;BME280;5998;42.676;23.268;2023-03-03T06:13:54;94774.00;;;5.34;100.00
11878;BME280;5998;42.676;23.268;2023-03-03T06:16:21;94727.41;;;5.09;100.00
11878;BME280;5998;42.676;23.268;2023-03-03T06:18:48;94775.31;;;5.45;100.00
11878;BME280;5998;42.676;23.268;2023-03-03T06:21:15;94774.94;;;5.29;100.00
11878;BME280;5998;42.676;23.268;2023-03-03T06:23:41;94784.59;;;5.48;100.00
11878;BME280;5998;42.676;23.268;2023-03-03T06:26:09;94784.31;;;5.58;100.00
11878;BME280;5998;42.676;23.268;2023-03-03T06:28:36;94778.53;;;5.64;100.00
11878;BME280;5998;42.676;23.268;2023-03-03T06:31:03;94776.19;;;5.63;100.00
11878;BME280;5998;42.676;23.268;2023-03-03T06:33:29;94776.97;;;5.72;100.00
11878;BME280;5998;42.676;23.268;2023-03-03T06:35:56;94780.63;;;5.76;100.00
11878;BME280;5998;42.676;23.268;2023-03-03T06:38:23;94776.06;;;5.76;100.00
11878;BME280;5998;42.676;23.268;2023-03-03T06:40:50;94778.84;;;5.63;100.00
11878;BME280;5998;42.676;23.268;2023-03-03T06:43:18;94778.72;;;5.76;100.00
11878;BME280;5998;42.676;23.268;2023-03-03T06:45:45;94787.69;;;5.80;100.00
11878;BME280;5998;42.676;23.268;2023-03-03T06:48:11;94780.16;;;5.74;100.00
11878;BME280;5998;42.676;23.268;2023-03-03T06:50:38;94788.63;;;5.76;100.00
11878;BME280;5998;42.676;23.268;2023-03-03T06:53:11;94784.41;;;5.83;100.00
11878;BME280;5998;42.676;23.268;2023-03-03T06:55:39;94778.31;;;5.91;100.00
11878;BME280;5998;42.676;23.268;2023-03-03T06:58:10;94788.56;;;5.98;100.00
11878;BME280;5998;42.676;23.268;2023-03-03T07:00:40;94783.59;;;5.83;100.00
11878;BME280;5998;42.676;23.268;2023-03-03T07:03:14;94783.66;;;5.91;100.00
11878;BME280;5998;42.676;23.268;2023-03-03T07:05:41;94790.44;;;5.58;100.00
11878;BME280;5998;42.676;23.268;2023-03-03T07:08:13;94786.31;;;5.52;100.00
11878;BME280;5998;42.676;23.268;2023-03-03T07:10:41;94796.16;;;5.34;100.00
11878;BME280;5998;42.676;23.268;2023-03-03T07:13:17;94793.81;;;5.42;100.00
11878;BME280;5998;42.676;23.268;2023-03-03T07:15:46;94793.34;;;5.40;100.00
11878;BME280;5998;42.676;23.268;2023-03-03T07:18:30;94790.94;;;5.69;100.00
11878;BME280;5998;42.676;23.268;2023-03-03T07:21:12;94790.53;;;5.84;100.00
11878;BME280;5998;42.676;23.268;2023-03-03T07:23:40;94788.06;;;5.87;100.00
11878;BME280;5998;42.676;23.268;2023-03-03T07:26:10;94786.84;;;6.11;100.00
11878;BME280;5998;42.676;23.268;2023-03-03T07:28:40;94789.53;;;6.19;100.00
11878;BME280;5998;42.676;23.268;2023-03-03T07:31:27;94790.97;;;6.25;100.00
11878;BME280;5998;42.676;23.268;2023-03-03T07:33:56;94785.16;;;6.23;100.00
11878;BME280;5998;42.676;23.268;2023-03-03T07:36:28;94788.75;;;6.10;100.00
11878;BME280;5998;42.676;23.268;2023-03-03T07:38:57;94779.47;;;6.16;100.00
11878;BME280;5998;42.676;23.268;2023-03-03T07:41:24;94777.59;;;6.17;100.00
11878;BME280;5998;42.676;23.268;2023-03-03T07:43:52;94787.34;;;6.21;100.00
11878;BME280;5998;42.676;23.268;2023-03-03T07:46:28;94771.94;;;6.27;100.00
11878;BME280;5998;42.676;23.268;2023-03-03T07:48:55;94776.38;;;6.40;100.00
11878;BME280;5998;42.676;23.268;2023-03-03T07:51:25;94775.25;;;6.49;100.00
11878;BME280;5998;42.676;23.268;2023-03-03T07:53:55;94768.03;;;6.50;100.00
11878;BME280;5998;42.676;23.268;2023-03-03T07:56:28;94776.84;;;6.59;100.00
11878;BME280;5998;42.676;23.268;2023-03-03T07:58:55;94771.81;;;6.58;100.00
11878;BME280;5998;42.676;23.268;2023-03-03T08:01:31;94773.69;;;6.74;100.00
11878;BME280;5998;42.676;23.268;2023-03-03T08:04:10;94771.81;;;6.75;100.00
11878;BME280;5998;42.676;23.268;2023-03-03T08:06:43;94771.94;;;6.87;100.00
11878;BME280;5998;42.676;23.268;2023-03-03T08:09:31;94769.13;;;6.92;100.00
11878;BME280;5998;42.676;23.268;2023-03-03T08:15:12;94772.25;;;6.94;100.00
11878;BME280;5998;42.676;23.268;2023-03-03T08:17:42;94769.47;;;6.65;100.00
11878;BME280;5998;42.676;23.268;2023-03-03T08:20:38;94768.81;;;6.59;100.00
11878;BME280;5998;42.676;23.268;2023-03-03T08:23:06;94762.69;;;6.59;100.00
11878;BME280;5998;42.676;23.268;2023-03-03T08:25:33;94762.19;;;6.74;100.00
11878;BME280;5998;42.676;23.268;2023-03-03T08:28:00;94758.59;;;6.70;100.00
11878;BME280;5998;42.676;23.268;2023-03-03T08:30:26;94759.22;;;6.75;100.00
11878;BME280;5998;42.676;23.268;2023-03-03T08:32:54;94764.72;;;6.44;100.00
11878;BME280;5998;42.676;23.268;2023-03-03T08:35:21;94746.47;;;6.29;100.00
11878;BME280;5998;42.676;23.268;2023-03-03T08:37:48;94747.56;;;6.28;100.00
11878;BME280;5998;42.676;23.268;2023-03-03T08:40:14;94751.34;;;6.36;100.00
11878;BME280;5998;42.676;23.268;2023-03-03T08:42:41;94754.03;;;6.44;100.00
11878;BME280;5998;42.676;23.268;2023-03-03T08:45:08;94760.81;;;6.59;100.00
11878;BME280;5998;42.676;23.268;2023-03-03T08:47:34;94759.69;;;6.34;100.00
11878;BME280;5998;42.676;23.268;2023-03-03T08:50:04;94759.53;;;6.39;100.00
11878;BME280;5998;42.676;23.268;2023-03-03T08:52:31;94759.53;;;6.39;100.00
11878;BME280;5998;42.676;23.268;2023-03-03T08:54:58;94760.00;;;6.41;100.00
11878;BME280;5998;42.676;23.268;2023-03-03T08:57:25;94757.00;;;6.43;100.00
11878;BME280;5998;42.676;23.268;2023-03-03T08:59:52;94738.59;;;6.41;100.00
11878;BME280;5998;42.676;23.268;2023-03-03T09:02:18;94759.22;;;6.67;100.00
11878;BME280;5998;42.676;23.268;2023-03-03T09:04:45;94758.88;;;6.60;100.00
11878;BME280;5998;42.676;23.268;2023-03-03T09:07:13;94765.03;;;6.86;100.00
11878;BME280;5998;42.676;23.268;2023-03-03T09:09:40;94756.19;;;7.02;100.00
11878;BME280;5998;42.676;23.268;2023-03-03T09:12:14;94759.97;;;6.93;100.00
11878;BME280;5998;42.676;23.268;2023-03-03T09:14:42;94753.00;;;7.00;100.00
11878;BME280;5998;42.676;23.268;2023-03-03T09:17:21;94741.84;;;7.07;100.00
11878;BME280;5998;42.676;23.268;2023-03-03T09:19:49;94748.56;;;7.22;100.00
11878;BME280;5998;42.676;23.268;2023-03-03T09:22:20;94754.53;;;7.27;100.00
11878;BME280;5998;42.676;23.268;2023-03-03T09:24:48;94744.47;;;7.24;100.00
11878;BME280;5998;42.676;23.268;2023-03-03T09:27:18;94760.50;;;7.41;100.00
11878;BME280;5998;42.676;23.268;2023-03-03T09:29:48;94755.13;;;7.41;100.00
11878;BME280;5998;42.676;23.268;2023-03-03T09:32:30;94746.16;;;7.37;100.00
11878;BME280;5998;42.676;23.268;2023-03-03T09:35:00;94751.94;;;6.93;100.00
11878;BME280;5998;42.676;23.268;2023-03-03T09:37:34;94756.38;;;6.72;100.00
11878;BME280;5998;42.676;23.268;2023-03-03T09:40:15;94759.03;;;6.89;100.00
11878;BME280;5998;42.676;23.268;2023-03-03T09:42:59;94761.09;;;6.66;100.00
11878;BME280;5998;42.676;23.268;2023-03-03T09:45:56;94759.03;;;6.89;100.00
11878;BME280;5998;42.676;23.268;2023-03-03T09:48:33;94746.13;;;6.91;100.00
11878;BME280;5998;42.676;23.268;2023-03-03T09:51:16;94754.78;;;6.79;100.00
11878;BME280;5998;42.676;23.268;2023-03-03T09:53:59;94755.59;;;6.71;100.00
11878;BME280;5998;42.676;23.268;2023-03-03T09:56:32;94746.31;;;6.69;100.00
11878;BME280;5998;42.676;23.268;2023-03-03T09:59:09;94748.78;;;6.91;100.00
11878;BME280;5998;42.676;23.268;2023-03-03T10:01:49;94749.88;;;7.07;100.00
11878;BME280;5998;42.676;23.268;2023-03-03T10:07:34;94746.72;;;7.05;100.00
11878;BME280;5998;42.676;23.268;2023-03-03T10:10:20;94747.34;;;7.10;100.00
11878;BME280;5998;42.676;23.268;2023-03-03T10:13:06;94735.84;;;7.01;100.00
11878;BME280;5998;42.676;23.268;2023-03-03T10:15:44;94737.56;;;7.14;100.00
11878;BME280;5998;42.676;23.268;2023-03-03T10:18:22;94741.19;;;7.10;100.00
11878;BME280;5998;42.676;23.268;2023-03-03T10:21:01;94741.66;;;7.12;100.00
11878;BME280;5998;42.676;23.268;2023-03-03T10:23:44;94741.19;;;7.10;100.00
11878;BME280;5998;42.676;23.268;2023-03-03T10:26:28;94732.47;;;7.30;100.00
11878;BME280;5998;42.676;23.268;2023-03-03T10:29:23;94731.66;;;7.38;100.00
11878;BME280;5998;42.676;23.268;2023-03-03T10:32:06;94718.31;;;7.30;100.00
11878;BME280;5998;42.676;23.268;2023-03-03T10:34:59;94723.34;;;7.23;100.00
11878;BME280;5998;42.676;23.268;2023-03-03T10:37:45;94698.97;;;7.16;100.00
11878;BME280;5998;42.676;23.268;2023-03-03T10:40:22;94718.66;;;7.20;100.00
11878;BME280;5998;42.676;23.268;2023-03-03T10:43:15;94721.47;;;7.23;100.00
11878;BME280;5998;42.676;23.268;2023-03-03T10:46:06;94720.53;;;7.28;100.00
11878;BME280;5998;42.676;23.268;2023-03-03T10:49:09;94727.09;;;7.39;100.00
11878;BME280;5998;42.676;23.268;2023-03-03T10:51:54;94721.41;;;7.40;100.00
11878;BME280;5998;42.676;23.268;2023-03-03T10:54:38;94713.88;;;7.25;100.00
11878;BME280;5998;42.676;23.268;2023-03-03T10:57:14;94709.84;;;7.19;100.00
11878;BME280;5998;42.676;23.268;2023-03-03T10:59:56;94715.38;;;7.14;100.00
11878;BME280;5998;42.676;23.268;2023-03-03T11:02:32;94702.63;;;7.11;100.00
11878;BME280;5998;42.676;23.268;2023-03-03T11:05:28;94712.97;;;7.21;100.00
11878;BME280;5998;42.676;23.268;2023-03-03T11:08:00;94709.66;;;7.24;100.00
11878;BME280;5998;42.676;23.268;2023-03-03T11:10:49;94709.41;;;7.08;100.00
11878;BME280;5998;42.676;23.268;2023-03-03T11:13:21;94705.41;;;7.14;100.00
11878;BME280;5998;42.676;23.268;2023-03-03T11:16:02;94702.91;;;7.18;100.00
11878;BME280;5998;42.676;23.268;2023-03-03T11:18:36;94695.84;;;7.05;100.00
11878;BME280;5998;42.676;23.268;2023-03-03T11:21:13;94700.78;;;6.94;100.00
11878;BME280;5998;42.676;23.268;2023-03-03T11:23:57;94698.53;;;7.05;100.00
11878;BME280;5998;42.676;23.268;2023-03-03T11:26:41;94691.44;;;7.00;100.00
11878;BME280;5998;42.676;23.268;2023-03-03T11:29:22;94692.25;;;6.92;100.00
11878;BME280;5998;42.676;23.268;2023-03-03T11:31:56;94687.41;;;6.94;100.00
11878;BME280;5998;42.676;23.268;2023-03-03T11:34:43;94698.97;;;7.16;100.00
11878;BME280;5998;42.676;23.268;2023-03-03T11:37:17;94702.19;;;6.92;100.00
11878;BME280;5998;42.676;23.268;2023-03-03T11:39:48;94692.72;;;7.03;100.00
11878;BME280;5998;42.676;23.268;2023-03-03T11:42:23;94687.91;;;7.26;100.00
11878;BME280;5998;42.676;23.268;2023-03-03T11:44:54;94693.34;;;7.00;100.00
11878;BME280;5998;42.676;23.268;2023-03-03T11:47:26;94680.94;;;6.87;100.00
11878;BME280;5998;42.676;23.268;2023-03-03T11:49:59;94686.63;;;6.85;100.00
11878;BME280;5998;42.676;23.268;2023-03-03T11:52:32;94680.63;;;6.97;100.00
11878;BME280;5998;42.676;23.268;2023-03-03T11:55:06;94692.19;;;7.18;100.00
11878;BME280;5998;42.676;23.268;2023-03-03T11:57:38;94674.25;;;7.10;100.00
11878;BME280;5998;42.676;23.268;2023-03-03T12:00:22;94675.44;;;6.92;100.00
11878;BME280;5998;42.676;23.268;2023-03-03T12:03:03;94662.09;;;6.75;100.00
11878;BME280;5998;42.676;23.268;2023-03-03T12:05:49;94687.91;;;6.71;100.00
11878;BME280;5998;42.676;23.268;2023-03-03T12:08:37;94689.47;;;6.80;100.00
11878;BME280;5998;42.676;23.268;2023-03-03T12:11:12;94691.19;;;6.85;100.00
11878;BME280;5998;42.676;23.268;2023-03-03T12:13:52;94679.41;;;6.77;100.00
11878;BME280;5998;42.676;23.268;2023-03-03T12:16:25;94681.91;;;6.82;100.00
11878;BME280;5998;42.676;23.268;2023-03-03T12:19:29;94686.03;;;6.63;100.00
11878;BME280;5998;42.676;23.268;2023-03-03T12:22:12;94687.47;;;6.51;100.00
11878;BME280;5998;42.676;23.268;2023-03-03T12:24:54;94694.41;;;6.27;100.00
11878;BME280;5998;42.676;23.268;2023-03-03T12:27:33;94692.81;;;6.43;100.00
11878;BME280;5998;42.676;23.268;2023-03-03T12:30:10;94689.38;;;6.25;100.00
11878;BME280;5998;42.676;23.268;2023-03-03T12:32:54;94690.47;;;6.24;100.00
11878;BME280;5998;42.676;23.268;2023-03-03T12:35:31;94697.72;;;6.07;100.00
11878;BME280;5998;42.676;23.268;2023-03-03T12:38:06;94699.91;;;6.22;100.00
11878;BME280;5998;42.676;23.268;2023-03-03T12:40:40;94705.72;;;6.32;100.00
11878;BME280;5998;42.676;23.268;2023-03-03T12:43:20;94704.31;;;6.18;100.00
11878;BME280;5998;42.676;23.268;2023-03-03T12:45:57;94704.31;;;6.26;100.00
11878;BME280;5998;42.676;23.268;2023-03-03T12:48:37;94705.41;;;6.08;100.00
11878;BME280;5998;42.676;23.268;2023-03-03T12:51:14;94695.81;;;5.99;100.00
11878;BME280;5998;42.676;23.268;2023-03-03T12:54:13;94699.88;;;5.96;100.00
11878;BME280;5998;42.676;23.268;2023-03-03T12:56:47;94706.66;;;6.02;100.00
11878;BME280;5998;42.676;23.268;2023-03-03T12:59:24;94706.19;;;6.00;100.00
11878;BME280;5998;42.676;23.268;2023-03-03T13:02:19;94695.03;;;5.98;100.00
11878;BME280;5998;42.676;23.268;2023-03-03T13:04:55;94694.72;;;6.08;100.00
11878;BME280;5998;42.676;23.268;2023-03-03T13:07:34;94630.53;;;5.82;100.00
11878;BME280;5998;42.676;23.268;2023-03-03T13:10:10;94698.47;;;6.16;100.00
11878;BME280;5998;42.676;23.268;2023-03-03T13:12:44;94686.53;;;6.05;100.00
11878;BME280;5998;42.676;23.268;2023-03-03T13:15:16;94692.38;;;6.15;100.00
11878;BME280;5998;42.676;23.268;2023-03-03T13:17:52;94682.59;;;6.11;100.00
11878;BME280;5998;42.676;23.268;2023-03-03T13:20:33;94680.41;;;6.04;100.00
11878;BME280;5998;42.676;23.268;2023-03-03T13:23:07;94689.69;;;6.32;100.00
11878;BME280;5998;42.676;23.268;2023-03-03T13:25:47;94686.53;;;6.13;100.00
11878;BME280;5998;42.676;23.268;2023-03-03T13:28:21;94661.38;;;6.14;100.00
11878;BME280;5998;42.676;23.268;2023-03-03T13:30:54;94688.75;;;6.28;100.00